createdAt,value
2018-07-27T00:00:46.464Z,15.61
2018-07-27T00:03:14.568Z,15.64
2018-07-27T00:05:42.585Z,15.64
2018-07-27T00:08:10.653Z,15.59
2018-07-27T00:10:38.720Z,15.60
2018-07-27T00:13:06.753Z,15.51
2018-07-27T00:15:34.789Z,15.45
2018-07-27T00:18:02.878Z,15.38
2018-07-27T00:20:30.937Z,15.37
2018-07-27T00:22:58.969Z,15.47
2018-07-27T00:25:27.082Z,15.45
2018-07-27T00:27:55.209Z,15.47
2018-07-27T00:30:23.245Z,15.38
2018-07-27T00:32:51.324Z,15.36
2018-07-27T00:35:19.494Z,15.38
2018-07-27T00:37:47.545Z,15.43
2018-07-27T00:40:15.687Z,15.25
2018-07-27T00:42:43.743Z,15.25
2018-07-27T00:45:11.757Z,15.31
2018-07-27T00:47:39.797Z,15.23
2018-07-27T00:50:08.096Z,15.15
2018-07-27T00:52:36.297Z,15.14
2018-07-27T00:55:04.399Z,15.25
2018-07-27T00:57:32.441Z,15.20
2018-07-27T01:00:00.443Z,15.10
2018-07-27T01:02:28.449Z,15.10
2018-07-27T01:04:56.436Z,15.10
2018-07-27T01:07:24.419Z,15.10
2018-07-27T01:09:52.397Z,15.13
2018-07-27T01:12:20.468Z,15.09
2018-07-27T01:14:48.570Z,15.13
2018-07-27T01:17:16.675Z,15.13
2018-07-27T01:19:44.730Z,15.23
2018-07-27T01:22:12.913Z,15.34
2018-07-27T01:24:41.021Z,15.29
2018-07-27T01:27:08.987Z,15.32
2018-07-27T01:29:37.052Z,15.33
2018-07-27T01:32:05.208Z,15.27
2018-07-27T01:34:33.331Z,15.25
2018-07-27T01:37:01.326Z,15.29
2018-07-27T01:39:29.368Z,15.31
2018-07-27T01:41:57.380Z,15.26
2018-07-27T01:44:25.365Z,15.16
2018-07-27T01:46:53.426Z,15.17
2018-07-27T01:49:21.397Z,15.23
2018-07-27T01:51:49.450Z,15.18
2018-07-27T01:54:17.576Z,15.14
2018-07-27T01:56:45.814Z,15.11
2018-07-27T01:59:14.389Z,15.14
2018-07-27T02:01:42.520Z,15.22
2018-07-27T02:04:10.504Z,15.26
2018-07-27T02:06:38.630Z,15.21
2018-07-27T02:09:08.494Z,15.21
2018-07-27T02:11:36.473Z,15.37
2018-07-27T02:14:04.506Z,15.40
2018-07-27T02:16:32.526Z,15.36
2018-07-27T02:19:00.592Z,15.31
2018-07-27T02:21:28.589Z,15.35
2018-07-27T02:23:56.615Z,15.35
2018-07-27T02:26:24.636Z,15.30
2018-07-27T02:28:52.659Z,15.28
2018-07-27T02:31:20.749Z,15.32
2018-07-27T02:33:48.901Z,15.35
2018-07-27T02:36:16.944Z,15.38
2018-07-27T02:38:45.150Z,15.38
2018-07-27T02:41:13.246Z,15.32
2018-07-27T02:43:41.281Z,15.39
2018-07-27T02:46:09.337Z,15.36
2018-07-27T02:48:37.389Z,15.38
2018-07-27T02:51:05.376Z,15.31
2018-07-27T02:53:33.502Z,15.32
2018-07-27T02:56:01.596Z,15.33
2018-07-27T02:58:29.584Z,15.33
2018-07-27T03:00:57.642Z,15.31
2018-07-27T03:03:25.797Z,15.36
2018-07-27T03:05:53.966Z,15.40
2018-07-27T03:08:22.058Z,15.35
2018-07-27T03:10:50.252Z,15.33
2018-07-27T03:13:18.251Z,15.38
2018-07-27T03:15:46.424Z,15.42
2018-07-27T03:18:14.530Z,15.46
2018-07-27T03:20:42.619Z,15.49
2018-07-27T03:23:10.638Z,15.51
2018-07-27T03:25:38.669Z,15.57
2018-07-27T03:28:06.882Z,15.66
2018-07-27T03:30:34.968Z,15.65
2018-07-27T03:33:03.094Z,15.70
2018-07-27T03:35:31.383Z,15.70
2018-07-27T03:37:59.531Z,15.74
2018-07-27T03:40:27.818Z,15.79
2018-07-27T03:42:55.950Z,15.78
2018-07-27T03:45:24.144Z,15.83
2018-07-27T03:47:53.096Z,15.86
2018-07-27T03:50:21.160Z,15.78
2018-07-27T03:52:49.241Z,15.78
2018-07-27T03:55:17.427Z,15.89
2018-07-27T03:57:45.889Z,15.85
2018-07-27T04:00:14.077Z,15.86
2018-07-27T04:02:42.557Z,15.88
2018-07-27T04:05:10.726Z,15.92
2018-07-27T04:07:39.220Z,15.93
2018-07-27T04:10:07.648Z,16.09
2018-07-27T04:12:36.057Z,16.24
2018-07-27T04:15:04.391Z,16.30
2018-07-27T04:17:33.236Z,16.35
2018-07-27T04:20:01.522Z,16.38
2018-07-27T04:22:29.778Z,16.41
2018-07-27T04:24:57.876Z,16.62
2018-07-27T04:27:27.278Z,16.69
2018-07-27T04:29:56.318Z,16.70
2018-07-27T04:32:24.479Z,16.69
2018-07-27T04:34:52.592Z,16.70
2018-07-27T04:37:20.769Z,16.75
2018-07-27T04:39:48.919Z,16.74
2018-07-27T04:42:16.995Z,16.65
2018-07-27T04:44:45.069Z,16.63
2018-07-27T04:47:13.160Z,16.61
2018-07-27T04:49:41.322Z,16.70
2018-07-27T04:52:09.651Z,16.72
2018-07-27T04:54:37.688Z,16.69
2018-07-27T04:57:05.880Z,16.77
2018-07-27T04:59:33.981Z,16.76
2018-07-27T05:02:02.103Z,16.74
2018-07-27T05:04:30.221Z,16.73
2018-07-27T05:06:58.377Z,16.81
2018-07-27T05:09:26.448Z,16.87
2018-07-27T05:11:54.771Z,16.86
2018-07-27T05:14:22.916Z,16.78
2018-07-27T05:16:51.037Z,16.78
2018-07-27T05:19:19.241Z,16.94
2018-07-27T05:21:47.419Z,17.08
2018-07-27T05:24:15.588Z,17.22
2018-07-27T05:26:43.861Z,17.24
2018-07-27T05:29:12.170Z,17.24
2018-07-27T05:31:40.454Z,17.36
2018-07-27T05:34:08.966Z,17.38
2018-07-27T05:36:37.305Z,17.31
2018-07-27T05:39:08.578Z,17.16
2018-07-27T05:41:36.839Z,17.16
2018-07-27T05:44:05.332Z,17.21
2018-07-27T05:46:33.539Z,17.10
2018-07-27T05:49:01.846Z,16.99
2018-07-27T05:51:30.093Z,16.93
2018-07-27T05:53:58.708Z,16.98
2018-07-27T05:56:27.282Z,17.15
2018-07-27T05:58:55.921Z,17.21
2018-07-27T06:01:24.128Z,17.35
2018-07-27T06:03:52.504Z,17.50
2018-07-27T06:06:20.759Z,17.55
2018-07-27T06:08:49.004Z,17.34
2018-07-27T06:11:17.310Z,17.42
2018-07-27T06:13:45.515Z,17.49
2018-07-27T06:16:13.930Z,17.65
2018-07-27T06:18:42.060Z,17.73
2018-07-27T06:21:10.769Z,17.80
2018-07-27T06:23:39.279Z,17.72
2018-07-27T06:26:07.591Z,17.84
2018-07-27T06:28:35.874Z,17.80
2018-07-27T06:31:04.164Z,17.80
2018-07-27T06:33:32.476Z,17.74
2018-07-27T06:36:00.973Z,17.68
2018-07-27T06:38:29.339Z,17.84
2018-07-27T06:40:57.660Z,17.98
2018-07-27T06:43:26.064Z,18.20
2018-07-27T06:45:54.388Z,18.35
2018-07-27T06:48:22.672Z,18.47
2018-07-27T06:50:51.590Z,18.47
2018-07-27T06:53:19.958Z,18.65
2018-07-27T06:55:48.148Z,18.83
2018-07-27T06:58:16.612Z,18.88
2018-07-27T07:00:44.877Z,18.87
2018-07-27T07:03:13.142Z,18.80
2018-07-27T07:05:41.347Z,18.70
2018-07-27T07:08:09.465Z,18.66
2018-07-27T07:10:37.658Z,18.89
2018-07-27T07:13:05.904Z,19.08
2018-07-27T07:15:34.265Z,19.29
2018-07-27T07:18:02.497Z,19.47
2018-07-27T07:20:30.731Z,19.76
2018-07-27T07:22:59.044Z,19.77
2018-07-27T07:25:27.466Z,19.54
2018-07-27T07:27:55.622Z,19.66
2018-07-27T07:30:23.660Z,19.76
2018-07-27T07:32:51.940Z,19.95
2018-07-27T07:35:20.135Z,20.02
2018-07-27T07:37:48.446Z,20.16
2018-07-27T07:40:16.697Z,20.43
2018-07-27T07:42:44.898Z,20.40
2018-07-27T07:45:13.191Z,20.39
2018-07-27T07:47:41.399Z,20.52
2018-07-27T07:50:09.740Z,20.63
2018-07-27T07:52:37.836Z,20.73
2018-07-27T07:55:06.310Z,20.79
2018-07-27T07:57:35.055Z,20.88
2018-07-27T08:00:04.613Z,21.04
2018-07-27T08:02:33.006Z,21.17
2018-07-27T08:05:01.216Z,21.42
2018-07-27T08:07:29.779Z,21.54
2018-07-27T08:09:58.065Z,21.55
2018-07-27T08:12:26.352Z,21.60
2018-07-27T08:14:54.898Z,21.67
2018-07-27T08:17:23.465Z,21.94
2018-07-27T08:19:51.674Z,22.07
2018-07-27T08:22:19.891Z,22.48
2018-07-27T08:24:48.325Z,22.26
2018-07-27T08:27:16.451Z,22.58
2018-07-27T08:29:45.746Z,22.78
2018-07-27T08:32:14.317Z,22.88
2018-07-27T08:34:42.841Z,22.99
2018-07-27T08:37:11.206Z,23.17
2018-07-27T08:39:40.727Z,23.58
2018-07-27T08:42:08.998Z,23.88
2018-07-27T08:44:38.623Z,24.00
2018-07-27T08:47:06.900Z,24.16
2018-07-27T08:49:35.165Z,24.34
2018-07-27T08:52:03.528Z,24.15
2018-07-27T08:54:31.970Z,24.73
2018-07-27T08:57:00.468Z,24.78
2018-07-27T08:59:28.776Z,24.71
2018-07-27T09:01:57.113Z,24.96
2018-07-27T09:04:25.375Z,25.43
2018-07-27T09:06:53.544Z,25.42
2018-07-27T09:09:21.845Z,25.04
2018-07-27T09:11:50.355Z,24.93
2018-07-27T09:14:18.829Z,25.01
2018-07-27T09:16:47.114Z,25.39
2018-07-27T09:19:16.075Z,25.45
2018-07-27T09:21:44.454Z,25.49
2018-07-27T09:24:12.833Z,25.47
2018-07-27T09:26:41.040Z,25.41
2018-07-27T09:29:09.247Z,25.25
2018-07-27T09:31:37.746Z,25.10
2018-07-27T09:34:06.062Z,25.28
2018-07-27T09:36:34.277Z,25.53
2018-07-27T09:39:02.867Z,25.71
2018-07-27T09:41:31.182Z,25.82
2018-07-27T09:43:59.784Z,26.15
2018-07-27T09:46:28.186Z,26.50
2018-07-27T09:48:56.725Z,25.67
2018-07-27T09:51:25.397Z,25.72
2018-07-27T09:53:54.174Z,26.15
2018-07-27T09:56:22.612Z,26.61
2018-07-27T09:58:51.674Z,26.94
2018-07-27T10:01:22.854Z,27.43
2018-07-27T10:03:51.739Z,27.31
2018-07-27T10:06:20.275Z,27.60
2018-07-27T10:08:48.982Z,27.31
2018-07-27T10:11:19.531Z,27.56
2018-07-27T10:13:48.387Z,27.08
2018-07-27T10:16:16.771Z,27.86
2018-07-27T10:18:45.292Z,27.69
2018-07-27T10:21:13.667Z,27.37
2018-07-27T10:23:41.894Z,27.02
2018-07-27T10:26:10.124Z,27.18
2018-07-27T10:28:38.417Z,27.00
2018-07-27T10:31:06.837Z,27.07
2018-07-27T10:33:35.053Z,27.45
2018-07-27T10:36:03.681Z,27.40
2018-07-27T10:38:32.151Z,27.46
2018-07-27T10:41:00.550Z,26.64
2018-07-27T10:43:28.951Z,26.99
2018-07-27T10:45:57.206Z,27.06
2018-07-27T10:48:25.634Z,27.43
2018-07-27T10:50:54.787Z,27.54
2018-07-27T10:53:23.067Z,28.03
2018-07-27T10:55:51.779Z,28.30
2018-07-27T10:58:20.168Z,28.68
2018-07-27T11:00:48.460Z,28.64
2018-07-27T11:03:17.157Z,28.40
2018-07-27T11:05:45.380Z,28.36
2018-07-27T11:08:13.804Z,28.13
2018-07-27T11:10:42.062Z,28.51
2018-07-27T11:13:10.365Z,28.24
2018-07-27T11:15:38.643Z,28.80
2018-07-27T11:18:07.011Z,29.19
2018-07-27T11:20:35.206Z,29.04
2018-07-27T11:23:03.363Z,28.73
2018-07-27T11:25:31.814Z,28.90
2018-07-27T11:28:00.159Z,28.98
2018-07-27T11:30:28.546Z,29.38
2018-07-27T11:32:56.881Z,29.11
2018-07-27T11:35:25.168Z,28.86
2018-07-27T11:37:53.452Z,28.68
2018-07-27T11:40:21.683Z,28.71
2018-07-27T11:42:50.152Z,28.06
2018-07-27T11:45:18.612Z,28.27
2018-07-27T11:47:47.088Z,28.36
2018-07-27T11:50:16.181Z,28.36
2018-07-27T11:52:44.446Z,28.15
2018-07-27T11:55:12.974Z,28.59
2018-07-27T11:57:41.340Z,28.74
2018-07-27T12:00:09.532Z,29.63
2018-07-27T12:02:37.824Z,30.09
2018-07-27T12:05:06.071Z,29.87
2018-07-27T12:07:34.500Z,30.05
2018-07-27T12:10:02.851Z,29.49
2018-07-27T12:12:31.180Z,29.34
2018-07-27T12:14:59.970Z,29.37
2018-07-27T12:17:28.176Z,28.63
2018-07-27T12:19:56.475Z,28.45
2018-07-27T12:22:24.720Z,28.57
2018-07-27T12:24:53.136Z,28.84
2018-07-27T12:27:21.261Z,29.42
2018-07-27T12:29:50.189Z,29.67
2018-07-27T12:32:18.502Z,29.47
2018-07-27T12:34:46.740Z,28.65
2018-07-27T12:37:15.060Z,28.27
2018-07-27T12:39:43.433Z,28.00
2018-07-27T12:42:11.854Z,27.12
2018-07-27T12:44:40.006Z,26.22
2018-07-27T12:47:08.258Z,25.40
2018-07-27T12:49:36.745Z,24.70
2018-07-27T12:52:05.051Z,24.28
2018-07-27T12:54:33.199Z,24.07
2018-07-27T12:57:02.190Z,24.01
2018-07-27T12:59:30.945Z,23.91
2018-07-27T13:01:58.981Z,23.98
2018-07-27T13:04:27.132Z,23.71
2018-07-27T13:06:55.698Z,23.65
2018-07-27T13:09:23.980Z,23.58
2018-07-27T13:11:52.143Z,23.27
2018-07-27T13:14:20.526Z,23.45
2018-07-27T13:16:51.180Z,23.35
2018-07-27T13:19:19.856Z,23.33
2018-07-27T13:21:48.298Z,23.38
2018-07-27T13:24:16.562Z,23.56
2018-07-27T13:26:45.051Z,23.53
2018-07-27T13:29:13.283Z,23.47
2018-07-27T13:31:56.230Z,23.38
2018-07-27T13:34:35.474Z,23.49
2018-07-27T13:37:04.033Z,23.34
2018-07-27T13:39:33.048Z,23.42
2018-07-27T13:42:02.385Z,23.44
2018-07-27T13:44:31.870Z,23.65
2018-07-27T13:47:00.503Z,23.83
2018-07-27T13:49:29.061Z,23.95
2018-07-27T13:51:57.962Z,23.89
2018-07-27T13:54:26.926Z,23.88
2018-07-27T13:56:55.442Z,23.89
2018-07-27T13:59:24.088Z,24.07
2018-07-27T14:01:52.473Z,24.11
2018-07-27T14:04:20.730Z,24.06
2018-07-27T14:06:50.386Z,24.23
2018-07-27T14:09:18.694Z,24.46
2018-07-27T14:11:46.940Z,24.40
2018-07-27T14:14:15.220Z,24.56
2018-07-27T14:16:43.575Z,24.76
2018-07-27T14:19:12.620Z,25.06
2018-07-27T14:21:41.023Z,25.20
2018-07-27T14:24:09.176Z,25.51
2018-07-27T14:26:37.378Z,25.66
2018-07-27T14:29:05.840Z,25.81
2018-07-27T14:31:34.088Z,25.54
2018-07-27T14:34:02.349Z,25.47
2018-07-27T14:36:30.552Z,25.50
2018-07-27T14:38:58.777Z,25.41
2018-07-27T14:41:27.518Z,25.32
2018-07-27T14:43:55.956Z,24.48
2018-07-27T14:46:24.162Z,24.47
2018-07-27T14:48:52.912Z,24.67
2018-07-27T14:51:21.571Z,24.74
2018-07-27T14:53:49.819Z,24.74
2018-07-27T14:56:18.107Z,24.79
2018-07-27T14:58:46.344Z,24.61
2018-07-27T15:01:14.449Z,24.24
2018-07-27T15:03:42.590Z,24.15
2018-07-27T15:06:10.696Z,24.20
2018-07-27T15:08:38.802Z,24.12
2018-07-27T15:11:07.666Z,23.71
2018-07-27T15:13:36.222Z,23.71
2018-07-27T15:16:04.811Z,23.81
2018-07-27T15:18:33.012Z,24.08
2018-07-27T15:21:01.243Z,24.15
2018-07-27T15:23:29.287Z,23.90
2018-07-27T15:25:57.414Z,23.63
2018-07-27T15:28:25.539Z,23.55
2018-07-27T15:30:53.760Z,23.59
2018-07-27T15:33:21.936Z,23.80
2018-07-27T15:35:50.258Z,24.09
2018-07-27T15:38:18.394Z,24.40
2018-07-27T15:40:46.745Z,24.49
2018-07-27T15:43:14.995Z,24.47
2018-07-27T15:45:43.187Z,24.23
2018-07-27T15:48:11.444Z,24.50
2018-07-27T15:50:39.706Z,24.57
2018-07-27T15:53:07.797Z,24.77
2018-07-27T15:55:35.924Z,24.85
2018-07-27T15:58:04.268Z,24.81
2018-07-27T16:00:32.360Z,24.73
2018-07-27T16:11:35.576Z,24.38
2018-07-27T16:14:04.273Z,24.36
2018-07-27T16:16:32.356Z,24.38
2018-07-27T16:19:00.548Z,24.28
2018-07-27T16:21:28.773Z,24.25
2018-07-27T16:23:56.880Z,24.07
2018-07-27T16:26:25.062Z,24.05
2018-07-27T16:28:53.156Z,24.03
2018-07-27T16:31:21.585Z,24.07
2018-07-27T16:33:49.884Z,23.72
2018-07-27T16:36:17.966Z,23.57
2018-07-27T16:38:46.027Z,23.71
2018-07-27T16:41:14.394Z,23.79
2018-07-27T16:43:42.727Z,23.74
2018-07-27T16:46:10.932Z,23.67
2018-07-27T16:48:39.165Z,23.55
2018-07-27T16:51:07.269Z,23.39
2018-07-27T16:53:35.346Z,23.21
2018-07-27T16:56:07.248Z,22.90
2018-07-27T16:58:37.134Z,22.89
2018-07-27T17:01:06.636Z,22.84
2018-07-27T17:03:36.209Z,22.87
2018-07-27T17:06:04.779Z,22.68
2018-07-27T17:08:33.129Z,22.60
2018-07-27T17:11:01.254Z,22.40
2018-07-27T17:13:29.508Z,22.07
2018-07-27T17:15:57.642Z,21.90
2018-07-27T17:18:25.927Z,21.93
2018-07-27T17:20:54.198Z,21.99
2018-07-27T17:23:22.528Z,21.98
2018-07-27T17:25:50.892Z,21.98
2018-07-27T17:28:19.022Z,21.88
2018-07-27T17:30:47.334Z,21.74
2018-07-27T17:33:15.593Z,21.66
2018-07-27T17:35:43.815Z,21.54
2018-07-27T17:38:12.032Z,21.54
2018-07-27T17:40:40.519Z,21.45
2018-07-27T17:43:08.876Z,21.31
2018-07-27T17:45:37.018Z,20.99
2018-07-27T17:48:05.180Z,20.86
2018-07-27T17:50:33.503Z,20.80
2018-07-27T17:53:01.833Z,20.67
2018-07-27T17:55:30.127Z,20.61
2018-07-27T17:57:58.490Z,20.53
2018-07-27T18:00:26.720Z,20.52
2018-07-27T18:02:54.880Z,20.44
2018-07-27T18:05:23.422Z,20.35
2018-07-27T18:07:52.029Z,20.21
2018-07-27T18:10:20.348Z,20.12
2018-07-27T18:12:48.568Z,19.99
2018-07-27T18:15:16.864Z,19.92
2018-07-27T18:17:46.144Z,19.85
2018-07-27T18:20:14.915Z,19.84
2018-07-27T18:22:44.240Z,19.82
2018-07-27T18:25:16.291Z,19.85
2018-07-27T18:27:45.433Z,19.87
2018-07-27T18:30:13.877Z,19.84
2018-07-27T18:32:42.217Z,19.68
2018-07-27T18:35:10.511Z,19.73
2018-07-27T18:37:39.532Z,19.70
2018-07-27T18:40:09.176Z,19.61
2018-07-27T18:42:37.437Z,19.64
2018-07-27T18:45:06.733Z,19.64
2018-07-27T18:47:34.943Z,19.60
2018-07-27T18:50:03.231Z,19.54
2018-07-27T18:52:31.502Z,19.54
2018-07-27T18:54:59.778Z,19.46
2018-07-27T18:57:28.127Z,19.42
2018-07-27T18:59:56.525Z,19.38
2018-07-27T19:02:25.071Z,19.29
2018-07-27T19:04:53.517Z,19.18
2018-07-27T19:07:21.869Z,19.18
2018-07-27T19:09:50.315Z,19.12
2018-07-27T19:12:18.611Z,19.11
2018-07-27T19:14:47.010Z,18.99
2018-07-27T19:17:15.393Z,18.99
2018-07-27T19:19:43.668Z,19.00
2018-07-27T19:22:12.123Z,18.92
2018-07-27T19:24:40.730Z,18.90
2018-07-27T19:27:09.323Z,18.84
2018-07-27T19:29:37.738Z,18.78
2018-07-27T19:32:06.336Z,18.78
2018-07-27T19:34:34.741Z,18.81
2018-07-27T19:37:03.031Z,18.79
2018-07-27T19:39:31.298Z,18.77
2018-07-27T19:41:59.485Z,18.74
2018-07-27T19:44:27.747Z,18.75
2018-07-27T19:46:55.900Z,18.69
2018-07-27T19:49:24.541Z,18.66
2018-07-27T19:51:52.931Z,18.63
2018-07-27T19:54:21.076Z,18.64
2018-07-27T19:56:49.189Z,18.63
2018-07-27T19:59:17.285Z,18.60
2018-07-27T20:01:45.516Z,18.64
2018-07-27T20:04:13.738Z,18.64
2018-07-27T20:06:41.912Z,18.53
2018-07-27T20:09:11.131Z,18.50
2018-07-27T20:11:39.679Z,18.49
2018-07-27T20:14:08.050Z,18.45
2018-07-27T20:16:36.186Z,18.44
2018-07-27T20:19:04.359Z,18.46
2018-07-27T20:21:32.707Z,18.43
2018-07-27T20:24:01.016Z,18.43
2018-07-27T20:26:29.408Z,18.40
2018-07-27T20:28:57.597Z,18.40
2018-07-27T20:31:25.798Z,18.43
2018-07-27T20:33:54.155Z,18.44
2018-07-27T20:36:22.398Z,18.43
2018-07-27T20:38:50.575Z,18.41
2018-07-27T20:41:18.939Z,18.43
2018-07-27T20:43:47.061Z,18.38
2018-07-27T20:46:15.670Z,18.42
2018-07-27T20:48:43.889Z,18.40
2018-07-27T20:51:12.706Z,18.41
2018-07-27T20:53:40.919Z,18.39
2018-07-27T20:56:09.084Z,18.38
2018-07-27T20:58:37.194Z,18.36
2018-07-27T21:01:05.318Z,18.32
2018-07-27T21:03:33.480Z,18.32
2018-07-27T21:06:01.645Z,18.29
2018-07-27T21:08:29.787Z,18.25
2018-07-27T21:10:57.955Z,18.19
2018-07-27T21:13:26.458Z,18.09
2018-07-27T21:15:54.788Z,18.07
2018-07-27T21:18:22.949Z,18.00
2018-07-27T21:20:51.148Z,17.99
2018-07-27T21:23:19.243Z,17.93
2018-07-27T21:25:47.362Z,17.85
2018-07-27T21:28:15.548Z,17.79
2018-07-27T21:30:43.633Z,17.71
2018-07-27T21:33:11.642Z,17.60
2018-07-27T21:35:40.993Z,17.61
2018-07-27T21:38:09.834Z,17.55
2018-07-27T21:40:37.983Z,17.49
2018-07-27T21:43:06.119Z,17.44
2018-07-27T21:45:34.200Z,17.34
2018-07-27T21:48:02.320Z,17.28
2018-07-27T21:50:30.411Z,17.27
2018-07-27T21:52:58.500Z,17.24
2018-07-27T21:55:26.557Z,17.14
2018-07-27T21:57:54.840Z,17.14
2018-07-27T22:00:22.952Z,17.09
2018-07-27T22:02:51.056Z,17.00
2018-07-27T22:05:19.177Z,17.04
2018-07-27T22:07:51.710Z,17.03
2018-07-27T22:10:19.826Z,17.00
2018-07-27T22:12:48.040Z,16.96
2018-07-27T22:15:21.254Z,17.00
2018-07-27T22:17:49.704Z,17.00
2018-07-27T22:20:17.755Z,16.94
2018-07-27T22:22:46.227Z,16.95
2018-07-27T22:25:14.216Z,16.92
2018-07-27T22:27:42.556Z,16.92
2018-07-27T22:30:11.560Z,16.91
2018-07-27T22:32:39.651Z,16.86
2018-07-27T22:35:08.063Z,16.83
2018-07-27T22:37:36.929Z,16.80
2018-07-27T22:40:05.664Z,16.75
2018-07-27T22:42:33.817Z,16.75
2018-07-27T22:45:02.038Z,16.76
2018-07-27T22:47:30.467Z,16.75
2018-07-27T22:49:58.543Z,16.73
2018-07-27T22:52:26.818Z,16.72
2018-07-27T22:54:54.887Z,16.69
2018-07-27T22:57:22.923Z,16.69
2018-07-27T22:59:50.952Z,16.68
2018-07-27T23:02:19.110Z,16.68
2018-07-27T23:04:47.173Z,16.68
2018-07-27T23:07:15.314Z,16.64
2018-07-27T23:09:43.429Z,16.63
2018-07-27T23:12:11.520Z,16.87
2018-07-27T23:14:39.644Z,17.05
2018-07-27T23:17:07.758Z,16.81
2018-07-27T23:19:35.911Z,16.58
2018-07-27T23:22:04.127Z,16.50
2018-07-27T23:24:32.217Z,16.48
2018-07-27T23:27:00.357Z,16.48
2018-07-27T23:29:28.476Z,16.55
2018-07-27T23:31:56.488Z,16.72
2018-07-27T23:34:24.579Z,16.62
2018-07-27T23:36:52.760Z,16.60
2018-07-27T23:39:20.826Z,16.55
2018-07-27T23:41:48.860Z,16.44
2018-07-27T23:44:16.915Z,16.44
2018-07-27T23:46:44.933Z,16.41
2018-07-27T23:49:12.966Z,16.34
2018-07-27T23:51:41.080Z,16.25
2018-07-27T23:54:09.175Z,16.20
2018-07-27T23:56:37.223Z,16.19
2018-07-27T23:59:05.457Z,16.33
